Monte Toledo — CQRA — position and weather

sailwx.info

Track history (hours):
 
Tides and Currents Weather Stations Pressure Air Temp Water Temp Dewpoint Dewpoint Depression Visibility Wind Speed Wind Dir Waves Ship Positions

Monte Toledo

Last reported at 2016-May-31 11:24 UTC. Time now 2016-Jun-01 03:45 UTC.
Position N 31°41' E 028°07'.

Length 274 m; draft 9 m.

Type: Tanker. MMSI: 255740000.

Date/timePositionNaut miles runAvg speedWind from/ knotsBaromVisibWave heightAir tempDewpointWater temp
2016-May-31 11:24N 31°41' E 028°07'1112.0
2016-May-31 10:30N 31°46' E 027°56'43311.1
2016-May-29 19:23N 34°25' E 019°56'17711.7
2016-May-29 04:13N 35°31' E 016°35'811.5
2016-May-29 03:33N 35°34' E 016°26'1111.5
2016-May-29 02:34N 35°38' E 016°13'1211.9
2016-May-29 01:33N 35°42' E 015°59'1212.2
2016-May-29 00:32N 35°47' E 015°45'1212.4
2016-May-28 23:33N 35°51' E 015°31'1212.4
2016-May-28 22:33N 35°56' E 015°17'1312.8
2016-May-28 21:33N 36°02' E 015°03'1312.9
2016-May-28 20:33N 36°06' E 014°47'1312.6
2016-May-28 19:33N 36°10' E 014°33'1212.5
2016-May-28 18:33N 36°15' E 014°18'1212.5
2016-May-28 17:33N 36°20' E 014°04'1212.4
2016-May-28 16:33N 36°25' E 013°50'1212.3
2016-May-28 15:33N 36°30' E 013°36'1212.4
2016-May-28 14:33N 36°34' E 013°21'1212.4
2016-May-28 13:34N 36°38' E 013°07'1212.3
2016-May-28 12:33N 36°43' E 012°53'1312.6
2016-May-28 11:33N 36°48' E 012°38'1312.8
2016-May-28 10:33N 36°53' E 012°24'1312.7
2016-May-28 09:32N 36°57' E 012°09'1313.0
2016-May-28 08:33N 37°02' E 011°54'8912.7
2016-May-28 01:32N 37°33' E 010°09'1313.3
2016-May-28 00:32N 37°33' E 009°52'2512.6
2016-May-27 22:31N 37°27' E 009°21'26912.2
2016-May-27 00:28N 37°08' E 003°44'1212.8
2016-May-26 23:33N 37°06' E 003°29'4113.0
2016-May-26 20:22N 36°58' E 002°38'1212.8
2016-May-26 19:26N 36°56' E 002°24'5512.8
2016-May-26 15:06N 36°46' E 001°16'912.7
2016-May-26 14:25N 36°44' E 001°05'31212.6
2016-May-25 13:33N 36°01' W 005°19'10 9.6
2016-May-25 12:34N 36°10' W 005°25'0 0.1
2016-May-25 11:33N 36°10' W 005°25'0 0.0
2016-May-25 10:33N 36°10' W 005°25'0 0.0
2016-May-25 09:30N 36°10' W 005°25'0 0.0
2016-May-25 08:30N 36°10' W 005°25'0 0.0
2016-May-25 07:33N 36°10' W 005°25'0 0.0
2016-May-25 06:33N 36°10' W 005°25'0 0.1
2016-May-25 04:12N 36°10' W 005°25'0 0.2
2016-May-25 03:30N 36°10' W 005°25'0 0.2
2016-May-25 02:24N 36°10' W 005°25'0 0.2
2016-May-25 01:33N 36°10' W 005°25'0 0.1
2016-May-25 00:33N 36°10' W 005°25'0 0.0
2016-May-24 23:33N 36°10' W 005°25'0 0.0
2016-May-24 19:30N 36°10' W 005°25'0 0.1
2016-May-24 17:30N 36°10' W 005°25'0 0.2
2016-May-24 16:33N 36°10' W 005°25'0 0.2
2016-May-24 15:30N 36°10' W 005°25'0 0.0
2016-May-24 14:33N 36°10' W 005°25'0 0.1
2016-May-24 13:33N 36°10' W 005°25'0 0.0
2016-May-24 07:32N 36°10' W 005°25'4 3.9
2016-May-24 06:31N 36°06' W 005°23'4 3.8
2016-May-24 05:34N 36°04' W 005°20'46113.1
2016-May-22 18:32N 37°19' E 004°07'2813.7
2016-May-22 16:29N 37°23' E 004°42'2613.7
2016-May-22 14:33N 37°27' E 005°15'1513.4
2016-May-22 13:26N 37°29' E 005°33'1713.5
2016-May-22 12:13N 37°31' E 005°54'2413.5
2016-May-22 10:26N 37°35' E 006°24'20912.4
2016-May-21 17:30N 37°35' E 010°48'  
Track history (hours):
 
Tides and Currents Weather Stations Pressure Air Temp Water Temp Dewpoint Dewpoint Depression Visibility Wind Speed Wind Dir Waves Ship Positions

Monte Toledo

Last reported at 2016-May-31 11:24 UTC. Time now 2016-Jun-01 03:45 UTC.
Position N 31°41' E 028°07'.

Length 274 m; draft 9 m.

Type: Tanker. MMSI: 255740000.

Date/timePositionNaut miles runAvg speedWind from/ knotsBaromVisibWave heightAir tempDewpointWater temp
2016-May-31 11:24N 31°41' E 028°07'1112.0
2016-May-31 10:30N 31°46' E 027°56'43311.1
2016-May-29 19:23N 34°25' E 019°56'17711.7
2016-May-29 04:13N 35°31' E 016°35'811.5
2016-May-29 03:33N 35°34' E 016°26'1111.5
2016-May-29 02:34N 35°38' E 016°13'1211.9
2016-May-29 01:33N 35°42' E 015°59'1212.2
2016-May-29 00:32N 35°47' E 015°45'1212.4
2016-May-28 23:33N 35°51' E 015°31'1212.4
2016-May-28 22:33N 35°56' E 015°17'1312.8
2016-May-28 21:33N 36°02' E 015°03'1312.9
2016-May-28 20:33N 36°06' E 014°47'1312.6
2016-May-28 19:33N 36°10' E 014°33'1212.5
2016-May-28 18:33N 36°15' E 014°18'1212.5
2016-May-28 17:33N 36°20' E 014°04'1212.4
2016-May-28 16:33N 36°25' E 013°50'1212.3
2016-May-28 15:33N 36°30' E 013°36'1212.4
2016-May-28 14:33N 36°34' E 013°21'1212.4
2016-May-28 13:34N 36°38' E 013°07'1212.3
2016-May-28 12:33N 36°43' E 012°53'1312.6
2016-May-28 11:33N 36°48' E 012°38'1312.8
2016-May-28 10:33N 36°53' E 012°24'1312.7
2016-May-28 09:32N 36°57' E 012°09'1313.0
2016-May-28 08:33N 37°02' E 011°54'8912.7
2016-May-28 01:32N 37°33' E 010°09'1313.3
2016-May-28 00:32N 37°33' E 009°52'2512.6
2016-May-27 22:31N 37°27' E 009°21'26912.2
2016-May-27 00:28N 37°08' E 003°44'1212.8
2016-May-26 23:33N 37°06' E 003°29'4113.0
2016-May-26 20:22N 36°58' E 002°38'1212.8
2016-May-26 19:26N 36°56' E 002°24'5512.8
2016-May-26 15:06N 36°46' E 001°16'912.7
2016-May-26 14:25N 36°44' E 001°05'31212.6
2016-May-25 13:33N 36°01' W 005°19'10 9.6
2016-May-25 12:34N 36°10' W 005°25'0 0.1
2016-May-25 11:33N 36°10' W 005°25'0 0.0
2016-May-25 10:33N 36°10' W 005°25'0 0.0
2016-May-25 09:30N 36°10' W 005°25'0 0.0
2016-May-25 08:30N 36°10' W 005°25'0 0.0
2016-May-25 07:33N 36°10' W 005°25'0 0.0
2016-May-25 06:33N 36°10' W 005°25'0 0.1
2016-May-25 04:12N 36°10' W 005°25'0 0.2
2016-May-25 03:30N 36°10' W 005°25'0 0.2
2016-May-25 02:24N 36°10' W 005°25'0 0.2
2016-May-25 01:33N 36°10' W 005°25'0 0.1
2016-May-25 00:33N 36°10' W 005°25'0 0.0
2016-May-24 23:33N 36°10' W 005°25'0 0.0
2016-May-24 19:30N 36°10' W 005°25'0 0.1
2016-May-24 17:30N 36°10' W 005°25'0 0.2
2016-May-24 16:33N 36°10' W 005°25'0 0.2
2016-May-24 15:30N 36°10' W 005°25'0 0.0
2016-May-24 14:33N 36°10' W 005°25'0 0.1
2016-May-24 13:33N 36°10' W 005°25'0 0.0
2016-May-24 07:32N 36°10' W 005°25'4 3.9
2016-May-24 06:31N 36°06' W 005°23'4 3.8
2016-May-24 05:34N 36°04' W 005°20'46113.1
2016-May-22 18:32N 37°19' E 004°07'2813.7
2016-May-22 16:29N 37°23' E 004°42'2613.7
2016-May-22 14:33N 37°27' E 005°15'1513.4
2016-May-22 13:26N 37°29' E 005°33'1713.5
2016-May-22 12:13N 37°31' E 005°54'2413.5
2016-May-22 10:26N 37°35' E 006°24'20912.4
2016-May-21 17:30N 37°35' E 010°48'  

Dump ship's entire track history